sensor_id;sensor_type;location;lat;lon;timestamp;P1;durP1;ratioP1;P2;durP2;ratioP2
5499;SDS011;2772;42.700;23.304;2022-09-09T00:01:07;20.47;;;16.87;;
5499;SDS011;2772;42.700;23.304;2022-09-09T00:03:48;21.60;;;16.97;;
5499;SDS011;2772;42.700;23.304;2022-09-09T00:06:21;18.53;;;15.00;;
5499;SDS011;2772;42.700;23.304;2022-09-09T00:08:53;20.80;;;17.05;;
5499;SDS011;2772;42.700;23.304;2022-09-09T00:11:28;20.53;;;16.60;;
5499;SDS011;2772;42.700;23.304;2022-09-09T00:13:58;21.37;;;16.13;;
5499;SDS011;2772;42.700;23.304;2022-09-09T00:16:29;22.50;;;16.07;;
5499;SDS011;2772;42.700;23.304;2022-09-09T00:19:04;20.53;;;15.40;;
5499;SDS011;2772;42.700;23.304;2022-09-09T00:21:35;20.03;;;15.20;;
5499;SDS011;2772;42.700;23.304;2022-09-09T00:24:08;22.10;;;14.73;;
5499;SDS011;2772;42.700;23.304;2022-09-09T00:26:45;25.63;;;16.07;;
5499;SDS011;2772;42.700;23.304;2022-09-09T00:29:19;20.10;;;14.90;;
5499;SDS011;2772;42.700;23.304;2022-09-09T00:31:53;24.67;;;17.40;;
5499;SDS011;2772;42.700;23.304;2022-09-09T00:34:25;23.60;;;15.40;;
5499;SDS011;2772;42.700;23.304;2022-09-09T00:36:54;19.40;;;15.27;;
5499;SDS011;2772;42.700;23.304;2022-09-09T00:39:25;18.20;;;15.27;;
5499;SDS011;2772;42.700;23.304;2022-09-09T00:42:02;24.53;;;16.23;;
5499;SDS011;2772;42.700;23.304;2022-09-09T00:44:42;19.53;;;16.57;;
5499;SDS011;2772;42.700;23.304;2022-09-09T00:47:20;22.70;;;16.07;;
5499;SDS011;2772;42.700;23.304;2022-09-09T00:50:09;18.73;;;15.00;;
5499;SDS011;2772;42.700;23.304;2022-09-09T00:52:44;18.13;;;14.87;;
5499;SDS011;2772;42.700;23.304;2022-09-09T00:55:19;20.53;;;15.90;;
5499;SDS011;2772;42.700;23.304;2022-09-09T00:57:52;21.63;;;14.13;;
5499;SDS011;2772;42.700;23.304;2022-09-09T01:00:20;19.80;;;15.17;;
5499;SDS011;2772;42.700;23.304;2022-09-09T01:02:52;19.80;;;14.17;;
5499;SDS011;2772;42.700;23.304;2022-09-09T01:05:33;19.93;;;14.67;;
5499;SDS011;2772;42.700;23.304;2022-09-09T01:08:09;17.10;;;14.90;;
5499;SDS011;2772;42.700;23.304;2022-09-09T01:10:52;18.30;;;15.50;;
5499;SDS011;2772;42.700;23.304;2022-09-09T01:13:22;18.43;;;15.23;;
5499;SDS011;2772;42.700;23.304;2022-09-09T01:15:52;21.50;;;15.57;;
5499;SDS011;2772;42.700;23.304;2022-09-09T01:18:20;23.40;;;15.33;;
5499;SDS011;2772;42.700;23.304;2022-09-09T01:20:54;23.93;;;16.13;;
5499;SDS011;2772;42.700;23.304;2022-09-09T01:23:34;22.83;;;16.03;;
5499;SDS011;2772;42.700;23.304;2022-09-09T01:26:26;23.17;;;16.30;;
5499;SDS011;2772;42.700;23.304;2022-09-09T01:28:54;22.03;;;15.90;;
5499;SDS011;2772;42.700;23.304;2022-09-09T01:31:22;28.83;;;16.20;;
5499;SDS011;2772;42.700;23.304;2022-09-09T01:33:53;18.07;;;16.07;;
5499;SDS011;2772;42.700;23.304;2022-09-09T01:36:34;20.47;;;15.43;;
5499;SDS011;2772;42.700;23.304;2022-09-09T01:39:06;23.23;;;15.70;;
5499;SDS011;2772;42.700;23.304;2022-09-09T01:41:34;22.70;;;15.50;;
5499;SDS011;2772;42.700;23.304;2022-09-09T01:44:01;21.73;;;16.00;;
5499;SDS011;2772;42.700;23.304;2022-09-09T01:46:29;23.03;;;16.30;;
5499;SDS011;2772;42.700;23.304;2022-09-09T01:48:56;21.23;;;16.67;;
5499;SDS011;2772;42.700;23.304;2022-09-09T01:51:24;24.00;;;16.20;;
5499;SDS011;2772;42.700;23.304;2022-09-09T01:53:51;21.53;;;16.10;;
5499;SDS011;2772;42.700;23.304;2022-09-09T01:56:21;23.03;;;15.67;;
5499;SDS011;2772;42.700;23.304;2022-09-09T01:59:01;21.40;;;16.53;;
5499;SDS011;2772;42.700;23.304;2022-09-09T02:01:36;23.97;;;16.07;;
5499;SDS011;2772;42.700;23.304;2022-09-09T02:04:21;19.60;;;15.93;;
5499;SDS011;2772;42.700;23.304;2022-09-09T02:07:02;18.17;;;15.27;;
5499;SDS011;2772;42.700;23.304;2022-09-09T02:09:30;21.93;;;15.80;;
5499;SDS011;2772;42.700;23.304;2022-09-09T02:11:57;24.90;;;15.77;;
5499;SDS011;2772;42.700;23.304;2022-09-09T02:14:33;23.77;;;16.10;;
5499;SDS011;2772;42.700;23.304;2022-09-09T02:17:06;25.20;;;16.30;;
5499;SDS011;2772;42.700;23.304;2022-09-09T02:19:36;24.23;;;16.13;;
5499;SDS011;2772;42.700;23.304;2022-09-09T02:22:08;23.00;;;16.10;;
5499;SDS011;2772;42.700;23.304;2022-09-09T02:24:36;22.70;;;16.40;;
5499;SDS011;2772;42.700;23.304;2022-09-09T02:27:06;23.83;;;17.00;;
5499;SDS011;2772;42.700;23.304;2022-09-09T02:29:38;21.83;;;16.77;;
5499;SDS011;2772;42.700;23.304;2022-09-09T02:32:08;23.37;;;16.50;;
5499;SDS011;2772;42.700;23.304;2022-09-09T02:34:39;22.90;;;17.10;;
5499;SDS011;2772;42.700;23.304;2022-09-09T02:37:10;21.80;;;16.30;;
5499;SDS011;2772;42.700;23.304;2022-09-09T02:39:38;25.10;;;16.47;;
5499;SDS011;2772;42.700;23.304;2022-09-09T02:42:05;20.43;;;15.80;;
5499;SDS011;2772;42.700;23.304;2022-09-09T02:47:05;19.60;;;15.87;;
5499;SDS011;2772;42.700;23.304;2022-09-09T02:49:40;20.27;;;17.00;;
5499;SDS011;2772;42.700;23.304;2022-09-09T02:52:17;20.07;;;16.57;;
5499;SDS011;2772;42.700;23.304;2022-09-09T02:54:48;16.63;;;15.00;;
5499;SDS011;2772;42.700;23.304;2022-09-09T02:57:21;18.37;;;15.40;;
5499;SDS011;2772;42.700;23.304;2022-09-09T02:59:53;18.10;;;15.23;;
5499;SDS011;2772;42.700;23.304;2022-09-09T03:02:24;16.80;;;15.00;;
5499;SDS011;2772;42.700;23.304;2022-09-09T03:04:51;19.57;;;15.00;;
5499;SDS011;2772;42.700;23.304;2022-09-09T03:07:18;18.07;;;15.60;;
5499;SDS011;2772;42.700;23.304;2022-09-09T03:09:45;19.23;;;15.93;;
5499;SDS011;2772;42.700;23.304;2022-09-09T03:12:12;20.87;;;15.67;;
5499;SDS011;2772;42.700;23.304;2022-09-09T03:14:39;22.90;;;16.47;;
5499;SDS011;2772;42.700;23.304;2022-09-09T03:17:06;23.13;;;17.23;;
5499;SDS011;2772;42.700;23.304;2022-09-09T03:19:35;22.00;;;15.73;;
5499;SDS011;2772;42.700;23.304;2022-09-09T03:22:02;21.20;;;15.10;;
5499;SDS011;2772;42.700;23.304;2022-09-09T03:24:30;19.43;;;15.83;;
5499;SDS011;2772;42.700;23.304;2022-09-09T03:26:57;20.97;;;16.00;;
5499;SDS011;2772;42.700;23.304;2022-09-09T03:29:24;19.57;;;15.63;;
5499;SDS011;2772;42.700;23.304;2022-09-09T03:31:50;20.90;;;16.33;;
5499;SDS011;2772;42.700;23.304;2022-09-09T03:34:17;23.57;;;17.20;;
5499;SDS011;2772;42.700;23.304;2022-09-09T03:36:45;19.67;;;16.50;;
5499;SDS011;2772;42.700;23.304;2022-09-09T03:39:13;19.10;;;16.37;;
5499;SDS011;2772;42.700;23.304;2022-09-09T03:41:40;22.80;;;16.97;;
5499;SDS011;2772;42.700;23.304;2022-09-09T03:44:07;18.67;;;16.57;;
5499;SDS011;2772;42.700;23.304;2022-09-09T03:46:34;22.10;;;16.90;;
5499;SDS011;2772;42.700;23.304;2022-09-09T03:49:00;21.77;;;17.23;;
5499;SDS011;2772;42.700;23.304;2022-09-09T03:51:27;23.67;;;16.40;;
5499;SDS011;2772;42.700;23.304;2022-09-09T03:53:55;28.63;;;17.00;;
5499;SDS011;2772;42.700;23.304;2022-09-09T03:56:23;19.97;;;15.70;;
5499;SDS011;2772;42.700;23.304;2022-09-09T03:58:50;22.60;;;17.43;;
5499;SDS011;2772;42.700;23.304;2022-09-09T04:01:17;23.63;;;16.13;;
5499;SDS011;2772;42.700;23.304;2022-09-09T04:03:44;24.50;;;18.20;;
5499;SDS011;2772;42.700;23.304;2022-09-09T04:06:11;27.50;;;18.30;;
5499;SDS011;2772;42.700;23.304;2022-09-09T04:08:40;23.73;;;16.87;;
5499;SDS011;2772;42.700;23.304;2022-09-09T04:11:08;22.07;;;17.33;;
5499;SDS011;2772;42.700;23.304;2022-09-09T04:13:36;23.80;;;16.87;;
5499;SDS011;2772;42.700;23.304;2022-09-09T04:16:04;23.50;;;17.00;;
5499;SDS011;2772;42.700;23.304;2022-09-09T04:18:31;19.70;;;16.30;;
5499;SDS011;2772;42.700;23.304;2022-09-09T04:20:59;27.30;;;17.50;;
5499;SDS011;2772;42.700;23.304;2022-09-09T04:23:26;23.70;;;17.57;;
5499;SDS011;2772;42.700;23.304;2022-09-09T04:25:55;26.13;;;18.60;;
5499;SDS011;2772;42.700;23.304;2022-09-09T04:28:25;25.53;;;17.60;;
5499;SDS011;2772;42.700;23.304;2022-09-09T04:30:53;21.23;;;16.90;;
5499;SDS011;2772;42.700;23.304;2022-09-09T04:33:23;35.57;;;20.53;;
5499;SDS011;2772;42.700;23.304;2022-09-09T04:35:52;30.13;;;19.67;;
5499;SDS011;2772;42.700;23.304;2022-09-09T04:38:19;32.10;;;17.60;;
5499;SDS011;2772;42.700;23.304;2022-09-09T04:40:47;33.63;;;19.40;;
5499;SDS011;2772;42.700;23.304;2022-09-09T04:43:16;32.10;;;19.30;;
5499;SDS011;2772;42.700;23.304;2022-09-09T04:45:46;33.70;;;19.20;;
5499;SDS011;2772;42.700;23.304;2022-09-09T04:48:14;32.00;;;19.00;;
5499;SDS011;2772;42.700;23.304;2022-09-09T04:50:41;23.80;;;18.87;;
5499;SDS011;2772;42.700;23.304;2022-09-09T04:53:08;32.60;;;20.10;;
5499;SDS011;2772;42.700;23.304;2022-09-09T04:55:35;28.53;;;19.10;;
5499;SDS011;2772;42.700;23.304;2022-09-09T04:58:03;26.63;;;19.37;;
5499;SDS011;2772;42.700;23.304;2022-09-09T05:00:31;24.43;;;18.47;;
5499;SDS011;2772;42.700;23.304;2022-09-09T05:03:01;28.40;;;17.53;;
5499;SDS011;2772;42.700;23.304;2022-09-09T05:05:29;23.87;;;17.90;;
5499;SDS011;2772;42.700;23.304;2022-09-09T05:08:00;23.57;;;18.03;;
5499;SDS011;2772;42.700;23.304;2022-09-09T05:10:28;28.70;;;18.90;;
5499;SDS011;2772;42.700;23.304;2022-09-09T05:12:54;47.10;;;19.60;;
5499;SDS011;2772;42.700;23.304;2022-09-09T05:15:21;27.33;;;19.53;;
5499;SDS011;2772;42.700;23.304;2022-09-09T05:17:48;31.60;;;19.60;;
5499;SDS011;2772;42.700;23.304;2022-09-09T05:20:18;31.53;;;19.23;;
5499;SDS011;2772;42.700;23.304;2022-09-09T05:22:46;40.23;;;19.93;;
5499;SDS011;2772;42.700;23.304;2022-09-09T05:25:14;25.77;;;19.30;;
5499;SDS011;2772;42.700;23.304;2022-09-09T05:27:41;27.10;;;19.50;;
5499;SDS011;2772;42.700;23.304;2022-09-09T05:30:08;26.10;;;18.67;;
5499;SDS011;2772;42.700;23.304;2022-09-09T05:32:36;33.20;;;19.10;;
5499;SDS011;2772;42.700;23.304;2022-09-09T05:35:03;33.07;;;19.40;;
5499;SDS011;2772;42.700;23.304;2022-09-09T05:37:31;30.60;;;19.90;;
5499;SDS011;2772;42.700;23.304;2022-09-09T05:39:58;22.73;;;19.00;;
5499;SDS011;2772;42.700;23.304;2022-09-09T05:42:29;24.20;;;18.53;;
5499;SDS011;2772;42.700;23.304;2022-09-09T05:44:56;25.90;;;18.60;;
5499;SDS011;2772;42.700;23.304;2022-09-09T05:47:23;26.90;;;18.70;;
5499;SDS011;2772;42.700;23.304;2022-09-09T05:49:52;24.30;;;18.60;;
5499;SDS011;2772;42.700;23.304;2022-09-09T05:52:20;30.37;;;18.17;;
5499;SDS011;2772;42.700;23.304;2022-09-09T05:54:49;27.93;;;18.87;;
5499;SDS011;2772;42.700;23.304;2022-09-09T05:57:15;40.27;;;20.57;;
5499;SDS011;2772;42.700;23.304;2022-09-09T05:59:44;33.30;;;18.70;;
5499;SDS011;2772;42.700;23.304;2022-09-09T06:02:11;34.10;;;19.20;;
5499;SDS011;2772;42.700;23.304;2022-09-09T06:04:38;31.20;;;19.00;;
5499;SDS011;2772;42.700;23.304;2022-09-09T06:07:05;25.47;;;18.60;;
5499;SDS011;2772;42.700;23.304;2022-09-09T06:09:32;27.40;;;19.30;;
5499;SDS011;2772;42.700;23.304;2022-09-09T06:12:00;37.77;;;18.80;;
5499;SDS011;2772;42.700;23.304;2022-09-09T06:14:27;26.93;;;18.57;;
5499;SDS011;2772;42.700;23.304;2022-09-09T06:16:54;25.30;;;19.20;;
5499;SDS011;2772;42.700;23.304;2022-09-09T06:19:21;23.17;;;18.30;;
5499;SDS011;2772;42.700;23.304;2022-09-09T06:21:49;22.00;;;18.27;;
5499;SDS011;2772;42.700;23.304;2022-09-09T06:24:16;26.13;;;18.40;;
5499;SDS011;2772;42.700;23.304;2022-09-09T06:26:44;25.57;;;17.37;;
5499;SDS011;2772;42.700;23.304;2022-09-09T06:29:12;22.80;;;18.07;;
5499;SDS011;2772;42.700;23.304;2022-09-09T06:31:39;26.70;;;17.87;;
5499;SDS011;2772;42.700;23.304;2022-09-09T06:34:07;25.10;;;16.27;;
5499;SDS011;2772;42.700;23.304;2022-09-09T06:36:35;22.03;;;16.50;;
5499;SDS011;2772;42.700;23.304;2022-09-09T06:39:03;25.07;;;16.60;;
5499;SDS011;2772;42.700;23.304;2022-09-09T06:41:30;21.33;;;15.30;;
5499;SDS011;2772;42.700;23.304;2022-09-09T06:43:59;34.87;;;18.00;;
5499;SDS011;2772;42.700;23.304;2022-09-09T06:46:27;18.93;;;14.80;;
5499;SDS011;2772;42.700;23.304;2022-09-09T06:48:57;21.47;;;14.90;;
5499;SDS011;2772;42.700;23.304;2022-09-09T06:51:25;20.17;;;15.70;;
5499;SDS011;2772;42.700;23.304;2022-09-09T06:53:54;24.23;;;16.00;;
5499;SDS011;2772;42.700;23.304;2022-09-09T06:56:22;30.70;;;15.17;;
5499;SDS011;2772;42.700;23.304;2022-09-09T06:58:51;18.63;;;13.00;;
5499;SDS011;2772;42.700;23.304;2022-09-09T07:01:20;23.10;;;15.97;;
5499;SDS011;2772;42.700;23.304;2022-09-09T07:03:50;18.63;;;12.57;;
5499;SDS011;2772;42.700;23.304;2022-09-09T07:06:18;16.60;;;11.60;;
5499;SDS011;2772;42.700;23.304;2022-09-09T07:08:49;25.70;;;11.53;;
5499;SDS011;2772;42.700;23.304;2022-09-09T07:11:18;18.77;;;11.67;;
5499;SDS011;2772;42.700;23.304;2022-09-09T07:13:46;17.70;;;12.30;;
5499;SDS011;2772;42.700;23.304;2022-09-09T07:16:13;20.03;;;14.07;;
5499;SDS011;2772;42.700;23.304;2022-09-09T07:18:42;16.00;;;10.50;;
5499;SDS011;2772;42.700;23.304;2022-09-09T07:21:11;14.93;;;10.97;;
5499;SDS011;2772;42.700;23.304;2022-09-09T07:23:39;11.83;;;10.63;;
5499;SDS011;2772;42.700;23.304;2022-09-09T07:26:09;14.23;;;11.50;;
5499;SDS011;2772;42.700;23.304;2022-09-09T07:28:37;15.53;;;12.20;;
5499;SDS011;2772;42.700;23.304;2022-09-09T07:31:05;15.73;;;11.03;;
5499;SDS011;2772;42.700;23.304;2022-09-09T07:33:32;16.77;;;11.63;;
5499;SDS011;2772;42.700;23.304;2022-09-09T07:36:04;17.07;;;10.37;;
5499;SDS011;2772;42.700;23.304;2022-09-09T07:38:38;15.13;;;11.13;;
5499;SDS011;2772;42.700;23.304;2022-09-09T07:41:07;14.97;;;12.43;;
5499;SDS011;2772;42.700;23.304;2022-09-09T07:43:37;14.80;;;10.77;;
5499;SDS011;2772;42.700;23.304;2022-09-09T07:46:05;14.30;;;10.40;;
5499;SDS011;2772;42.700;23.304;2022-09-09T07:48:32;13.47;;;11.10;;
5499;SDS011;2772;42.700;23.304;2022-09-09T07:51:04;11.63;;;10.47;;
5499;SDS011;2772;42.700;23.304;2022-09-09T07:53:32;16.07;;;10.73;;
5499;SDS011;2772;42.700;23.304;2022-09-09T07:56:06;12.63;;;11.23;;
5499;SDS011;2772;42.700;23.304;2022-09-09T07:58:35;13.23;;;10.50;;
5499;SDS011;2772;42.700;23.304;2022-09-09T08:01:06;14.37;;;9.50;;
5499;SDS011;2772;42.700;23.304;2022-09-09T08:03:34;19.80;;;10.30;;
5499;SDS011;2772;42.700;23.304;2022-09-09T08:06:02;18.93;;;10.43;;
5499;SDS011;2772;42.700;23.304;2022-09-09T08:08:29;14.20;;;11.10;;
5499;SDS011;2772;42.700;23.304;2022-09-09T08:11:03;15.90;;;10.23;;
5499;SDS011;2772;42.700;23.304;2022-09-09T08:13:34;13.13;;;10.50;;
5499;SDS011;2772;42.700;23.304;2022-09-09T08:16:08;15.97;;;9.67;;
5499;SDS011;2772;42.700;23.304;2022-09-09T08:18:37;15.77;;;10.27;;
5499;SDS011;2772;42.700;23.304;2022-09-09T08:21:06;10.40;;;9.40;;
5499;SDS011;2772;42.700;23.304;2022-09-09T08:23:34;12.50;;;9.50;;
5499;SDS011;2772;42.700;23.304;2022-09-09T08:26:09;14.13;;;10.50;;
5499;SDS011;2772;42.700;23.304;2022-09-09T08:28:39;13.10;;;10.90;;
5499;SDS011;2772;42.700;23.304;2022-09-09T08:31:07;25.70;;;12.17;;
5499;SDS011;2772;42.700;23.304;2022-09-09T08:33:35;20.93;;;12.90;;
5499;SDS011;2772;42.700;23.304;2022-09-09T08:36:03;11.53;;;9.93;;
5499;SDS011;2772;42.700;23.304;2022-09-09T08:38:31;12.37;;;9.60;;
5499;SDS011;2772;42.700;23.304;2022-09-09T08:41:02;17.37;;;9.53;;
5499;SDS011;2772;42.700;23.304;2022-09-09T08:43:38;11.40;;;9.67;;
5499;SDS011;2772;42.700;23.304;2022-09-09T08:46:09;13.73;;;10.00;;
5499;SDS011;2772;42.700;23.304;2022-09-09T08:48:43;15.80;;;9.90;;
5499;SDS011;2772;42.700;23.304;2022-09-09T08:51:18;12.73;;;9.00;;
5499;SDS011;2772;42.700;23.304;2022-09-09T08:53:46;16.00;;;8.80;;
5499;SDS011;2772;42.700;23.304;2022-09-09T08:56:16;13.43;;;9.07;;
5499;SDS011;2772;42.700;23.304;2022-09-09T08:58:49;15.17;;;10.47;;
5499;SDS011;2772;42.700;23.304;2022-09-09T09:01:22;12.37;;;10.10;;
5499;SDS011;2772;42.700;23.304;2022-09-09T09:04:01;13.13;;;9.93;;
5499;SDS011;2772;42.700;23.304;2022-09-09T09:06:40;11.37;;;10.10;;
5499;SDS011;2772;42.700;23.304;2022-09-09T09:09:18;12.53;;;9.67;;
5499;SDS011;2772;42.700;23.304;2022-09-09T09:11:54;14.80;;;10.33;;
5499;SDS011;2772;42.700;23.304;2022-09-09T09:14:27;11.40;;;10.10;;
5499;SDS011;2772;42.700;23.304;2022-09-09T09:16:56;11.90;;;9.93;;
5499;SDS011;2772;42.700;23.304;2022-09-09T09:19:26;15.63;;;10.10;;
5499;SDS011;2772;42.700;23.304;2022-09-09T09:21:58;11.63;;;8.80;;
5499;SDS011;2772;42.700;23.304;2022-09-09T09:24:34;16.50;;;11.47;;
5499;SDS011;2772;42.700;23.304;2022-09-09T09:27:10;12.53;;;9.70;;
5499;SDS011;2772;42.700;23.304;2022-09-09T09:29:41;14.23;;;9.60;;
5499;SDS011;2772;42.700;23.304;2022-09-09T09:32:10;12.00;;;9.30;;
5499;SDS011;2772;42.700;23.304;2022-09-09T09:34:42;13.40;;;10.10;;
5499;SDS011;2772;42.700;23.304;2022-09-09T09:37:16;13.30;;;10.93;;
5499;SDS011;2772;42.700;23.304;2022-09-09T09:39:53;11.53;;;9.67;;
5499;SDS011;2772;42.700;23.304;2022-09-09T09:42:20;10.60;;;9.50;;
5499;SDS011;2772;42.700;23.304;2022-09-09T09:44:48;10.20;;;8.77;;
5499;SDS011;2772;42.700;23.304;2022-09-09T09:47:16;13.57;;;9.67;;
5499;SDS011;2772;42.700;23.304;2022-09-09T09:49:52;12.13;;;10.20;;
5499;SDS011;2772;42.700;23.304;2022-09-09T09:52:21;12.13;;;10.10;;
5499;SDS011;2772;42.700;23.304;2022-09-09T09:54:49;12.13;;;9.30;;
5499;SDS011;2772;42.700;23.304;2022-09-09T09:57:18;11.87;;;9.83;;
5499;SDS011;2772;42.700;23.304;2022-09-09T10:00:02;12.67;;;10.37;;
5499;SDS011;2772;42.700;23.304;2022-09-09T10:02:39;13.93;;;10.33;;
5499;SDS011;2772;42.700;23.304;2022-09-09T10:05:12;15.53;;;10.67;;
5499;SDS011;2772;42.700;23.304;2022-09-09T10:07:41;13.10;;;10.73;;
5499;SDS011;2772;42.700;23.304;2022-09-09T10:10:11;15.10;;;10.30;;
5499;SDS011;2772;42.700;23.304;2022-09-09T10:12:44;18.10;;;10.00;;
5499;SDS011;2772;42.700;23.304;2022-09-09T10:15:29;22.40;;;10.40;;
5499;SDS011;2772;42.700;23.304;2022-09-09T10:18:06;11.67;;;10.33;;
5499;SDS011;2772;42.700;23.304;2022-09-09T10:20:50;15.37;;;10.77;;
5499;SDS011;2772;42.700;23.304;2022-09-09T10:23:28;11.33;;;10.13;;
5499;SDS011;2772;42.700;23.304;2022-09-09T10:26:17;11.87;;;10.63;;
5499;SDS011;2772;42.700;23.304;2022-09-09T10:31:51;13.10;;;10.93;;
5499;SDS011;2772;42.700;23.304;2022-09-09T10:34:34;18.03;;;11.90;;
5499;SDS011;2772;42.700;23.304;2022-09-09T10:37:29;17.23;;;11.83;;
5499;SDS011;2772;42.700;23.304;2022-09-09T10:40:20;26.00;;;12.07;;
5499;SDS011;2772;42.700;23.304;2022-09-09T10:42:56;13.80;;;11.93;;
5499;SDS011;2772;42.700;23.304;2022-09-09T10:45:32;25.13;;;13.50;;
5499;SDS011;2772;42.700;23.304;2022-09-09T10:48:15;18.23;;;11.43;;
5499;SDS011;2772;42.700;23.304;2022-09-09T10:50:54;23.93;;;12.10;;
5499;SDS011;2772;42.700;23.304;2022-09-09T10:53:28;13.23;;;11.03;;
5499;SDS011;2772;42.700;23.304;2022-09-09T10:56:06;24.80;;;17.20;;
5499;SDS011;2772;42.700;23.304;2022-09-09T10:58:37;16.13;;;11.33;;
5499;SDS011;2772;42.700;23.304;2022-09-09T11:01:10;20.67;;;13.90;;
5499;SDS011;2772;42.700;23.304;2022-09-09T11:03:44;17.43;;;12.10;;
5499;SDS011;2772;42.700;23.304;2022-09-09T11:06:18;15.40;;;11.30;;
5499;SDS011;2772;42.700;23.304;2022-09-09T11:08:47;11.93;;;10.67;;
5499;SDS011;2772;42.700;23.304;2022-09-09T11:11:16;20.93;;;10.57;;
5499;SDS011;2772;42.700;23.304;2022-09-09T11:13:47;18.57;;;11.03;;
5499;SDS011;2772;42.700;23.304;2022-09-09T11:16:22;12.40;;;10.80;;
5499;SDS011;2772;42.700;23.304;2022-09-09T11:18:57;12.87;;;11.47;;
5499;SDS011;2772;42.700;23.304;2022-09-09T11:21:28;12.93;;;10.63;;
5499;SDS011;2772;42.700;23.304;2022-09-09T11:23:59;16.30;;;10.60;;
5499;SDS011;2772;42.700;23.304;2022-09-09T11:26:31;21.30;;;12.20;;
5499;SDS011;2772;42.700;23.304;2022-09-09T11:29:04;16.60;;;11.27;;
5499;SDS011;2772;42.700;23.304;2022-09-09T11:31:44;14.73;;;9.97;;
5499;SDS011;2772;42.700;23.304;2022-09-09T11:34:25;13.93;;;10.57;;
5499;SDS011;2772;42.700;23.304;2022-09-09T11:37:17;18.53;;;10.90;;
5499;SDS011;2772;42.700;23.304;2022-09-09T11:40:14;14.43;;;10.63;;
5499;SDS011;2772;42.700;23.304;2022-09-09T11:42:45;13.83;;;10.70;;
5499;SDS011;2772;42.700;23.304;2022-09-09T11:45:21;13.70;;;11.10;;
5499;SDS011;2772;42.700;23.304;2022-09-09T11:47:55;18.73;;;11.73;;
5499;SDS011;2772;42.700;23.304;2022-09-09T11:50:36;13.73;;;11.10;;
5499;SDS011;2772;42.700;23.304;2022-09-09T11:53:15;30.00;;;11.67;;
5499;SDS011;2772;42.700;23.304;2022-09-09T11:55:59;19.70;;;11.57;;
5499;SDS011;2772;42.700;23.304;2022-09-09T11:58:33;14.97;;;11.70;;
5499;SDS011;2772;42.700;23.304;2022-09-09T12:07:02;19.90;;;11.80;;
5499;SDS011;2772;42.700;23.304;2022-09-09T12:09:44;14.87;;;11.07;;
5499;SDS011;2772;42.700;23.304;2022-09-09T12:12:30;24.47;;;11.70;;
5499;SDS011;2772;42.700;23.304;2022-09-09T12:15:00;16.07;;;11.80;;
5499;SDS011;2772;42.700;23.304;2022-09-09T12:17:30;16.90;;;11.00;;
5499;SDS011;2772;42.700;23.304;2022-09-09T12:20:03;16.33;;;11.47;;
5499;SDS011;2772;42.700;23.304;2022-09-09T12:22:39;16.10;;;11.43;;
5499;SDS011;2772;42.700;23.304;2022-09-09T12:25:16;20.23;;;12.23;;
5499;SDS011;2772;42.700;23.304;2022-09-09T12:27:56;15.43;;;12.00;;
5499;SDS011;2772;42.700;23.304;2022-09-09T12:30:32;13.27;;;11.20;;
5499;SDS011;2772;42.700;23.304;2022-09-09T12:33:02;21.83;;;11.10;;
5499;SDS011;2772;42.700;23.304;2022-09-09T12:35:36;15.50;;;12.40;;
5499;SDS011;2772;42.700;23.304;2022-09-09T12:38:05;13.33;;;11.90;;
5499;SDS011;2772;42.700;23.304;2022-09-09T12:40:36;16.33;;;11.60;;
5499;SDS011;2772;42.700;23.304;2022-09-09T12:43:15;14.30;;;12.33;;
5499;SDS011;2772;42.700;23.304;2022-09-09T12:45:43;17.93;;;13.80;;
5499;SDS011;2772;42.700;23.304;2022-09-09T12:48:11;15.53;;;11.27;;
5499;SDS011;2772;42.700;23.304;2022-09-09T12:50:43;13.80;;;11.97;;
5499;SDS011;2772;42.700;23.304;2022-09-09T12:53:15;20.33;;;13.37;;
5499;SDS011;2772;42.700;23.304;2022-09-09T12:55:49;22.33;;;13.83;;
5499;SDS011;2772;42.700;23.304;2022-09-09T12:58:18;20.90;;;12.70;;
5499;SDS011;2772;42.700;23.304;2022-09-09T13:00:48;16.00;;;12.47;;
5499;SDS011;2772;42.700;23.304;2022-09-09T13:03:17;17.03;;;13.00;;
5499;SDS011;2772;42.700;23.304;2022-09-09T13:05:46;23.67;;;12.50;;
5499;SDS011;2772;42.700;23.304;2022-09-09T13:08:15;21.13;;;13.80;;
5499;SDS011;2772;42.700;23.304;2022-09-09T13:10:46;16.23;;;10.43;;
5499;SDS011;2772;42.700;23.304;2022-09-09T13:13:21;12.37;;;8.33;;
5499;SDS011;2772;42.700;23.304;2022-09-09T13:15:49;16.80;;;9.20;;
5499;SDS011;2772;42.700;23.304;2022-09-09T13:18:19;11.30;;;8.17;;
5499;SDS011;2772;42.700;23.304;2022-09-09T13:20:49;13.20;;;8.30;;
5499;SDS011;2772;42.700;23.304;2022-09-09T13:23:19;15.13;;;8.90;;
5499;SDS011;2772;42.700;23.304;2022-09-09T13:25:53;18.63;;;8.80;;
5499;SDS011;2772;42.700;23.304;2022-09-09T13:28:22;14.60;;;9.30;;
5499;SDS011;2772;42.700;23.304;2022-09-09T13:30:57;16.50;;;9.40;;
5499;SDS011;2772;42.700;23.304;2022-09-09T13:33:32;10.63;;;8.30;;
5499;SDS011;2772;42.700;23.304;2022-09-09T13:36:02;20.30;;;14.60;;
5499;SDS011;2772;42.700;23.304;2022-09-09T13:38:33;18.80;;;8.70;;
5499;SDS011;2772;42.700;23.304;2022-09-09T13:41:04;31.93;;;11.27;;
5499;SDS011;2772;42.700;23.304;2022-09-09T13:43:34;25.33;;;10.33;;
5499;SDS011;2772;42.700;23.304;2022-09-09T13:46:03;12.53;;;9.03;;
5499;SDS011;2772;42.700;23.304;2022-09-09T13:48:31;14.23;;;10.27;;
5499;SDS011;2772;42.700;23.304;2022-09-09T13:50:59;15.30;;;8.27;;
5499;SDS011;2772;42.700;23.304;2022-09-09T13:53:28;33.73;;;8.70;;
5499;SDS011;2772;42.700;23.304;2022-09-09T13:55:56;16.20;;;8.93;;
5499;SDS011;2772;42.700;23.304;2022-09-09T13:58:24;17.97;;;8.07;;
5499;SDS011;2772;42.700;23.304;2022-09-09T14:00:51;17.70;;;8.17;;
5499;SDS011;2772;42.700;23.304;2022-09-09T14:03:19;19.40;;;8.57;;
5499;SDS011;2772;42.700;23.304;2022-09-09T14:05:46;26.53;;;9.70;;
5499;SDS011;2772;42.700;23.304;2022-09-09T14:08:20;15.60;;;8.20;;
5499;SDS011;2772;42.700;23.304;2022-09-09T14:10:48;14.67;;;8.00;;
5499;SDS011;2772;42.700;23.304;2022-09-09T14:13:17;18.10;;;8.75;;
5499;SDS011;2772;42.700;23.304;2022-09-09T14:15:47;15.43;;;8.03;;
5499;SDS011;2772;42.700;23.304;2022-09-09T14:18:14;16.90;;;8.97;;
5499;SDS011;2772;42.700;23.304;2022-09-09T14:20:41;24.60;;;9.43;;
5499;SDS011;2772;42.700;23.304;2022-09-09T14:23:09;15.07;;;7.80;;
5499;SDS011;2772;42.700;23.304;2022-09-09T14:25:39;16.10;;;8.53;;
5499;SDS011;2772;42.700;23.304;2022-09-09T14:28:07;13.53;;;9.23;;
5499;SDS011;2772;42.700;23.304;2022-09-09T14:30:38;17.27;;;10.47;;
5499;SDS011;2772;42.700;23.304;2022-09-09T14:33:05;18.10;;;11.13;;
5499;SDS011;2772;42.700;23.304;2022-09-09T14:35:33;15.00;;;11.73;;
5499;SDS011;2772;42.700;23.304;2022-09-09T14:38:01;14.30;;;11.10;;
5499;SDS011;2772;42.700;23.304;2022-09-09T14:40:28;16.37;;;11.60;;
5499;SDS011;2772;42.700;23.304;2022-09-09T14:42:55;26.63;;;12.60;;
5499;SDS011;2772;42.700;23.304;2022-09-09T14:45:22;14.40;;;10.80;;
5499;SDS011;2772;42.700;23.304;2022-09-09T14:47:51;22.80;;;11.00;;
5499;SDS011;2772;42.700;23.304;2022-09-09T14:50:18;16.90;;;11.30;;
5499;SDS011;2772;42.700;23.304;2022-09-09T14:52:45;15.20;;;10.57;;
5499;SDS011;2772;42.700;23.304;2022-09-09T14:55:12;14.00;;;11.23;;
5499;SDS011;2772;42.700;23.304;2022-09-09T14:57:40;15.73;;;11.30;;
5499;SDS011;2772;42.700;23.304;2022-09-09T15:00:08;18.63;;;10.83;;
5499;SDS011;2772;42.700;23.304;2022-09-09T15:02:36;14.70;;;11.00;;
5499;SDS011;2772;42.700;23.304;2022-09-09T15:05:05;16.70;;;10.43;;
5499;SDS011;2772;42.700;23.304;2022-09-09T15:07:32;20.37;;;10.80;;
5499;SDS011;2772;42.700;23.304;2022-09-09T15:09:59;20.93;;;10.37;;